Concord, NH (03301)

5:27 PM EST on February 05, 2016 (GMT -0500)
East Concord | | Change Station
CLOSE
Current Station
Personal Weather Station
Location: Concord, NH
Elevation: 341 ft
Nearby Weather Stations

Elev 341 ft 43.24 °N, 71.53 °W | Updated 10 seconds ago

Mostly Cloudy
Mostly Cloudy
27.7 °F
Feels Like 28 °F
N
0.0
Wind Variable Wind from South
Gusts 0.0 mph

Today
High -- | Low -- °F
--% Chance of Precip.
Yesterday
High -- | Low -- °F
Precip. -- in
Pressure 30.04 in
Visibility 10.0 miles
Clouds Clear
Windchill 28 °F
Dew Point 19 °F
Humidity 69%
Rainfall 0.00 in
Snow Depth Not available.
6:57 AM 5:02 PM
Waning Crescent, 9% visible
METAR KCON 052151Z AUTO 31009KT 10SM CLR M01/M08 A3002 RMK AO2 SLP170 T10061083
Pressure 30.04 in
Visibility 10.0 miles
Clouds Clear
Windchill 28 °F
Dew Point 19 °F
Humidity 69%
Rainfall 0.00 in
Snow Depth Not available.
6:57 AM 5:02 PM
Waning Crescent, 9% visible
METAR KCON 052151Z AUTO 31009KT 10SM CLR M01/M08 A3002 RMK AO2 SLP170 T10061083

10-Day Weather Forecast

Almanac

Astronomy

Feb. 05, 2016 Rise Set
Actual Time
Civil Twilight
Nautical Twilight
Astronomical Twilight
Moon
Length of Visible Light
Length of Day
Tomorrow will be .
, % of the Moon is Illuminated

Today's Extremes

State Highs State Lows

Community

WunderPhotos

Upload Photos

1,890,878 photos uploaded!

WunderBlog® & News

Nearby

Air Quality

  Air Quality AQ Index Pollutant
Not available.

Snow Depth

Station Depth Elevation

Earthquake Activity

City Distance Mag. Time & Date
Minimum magnitude displayed is 2.5.

Coastal Water Temperatures

Place Temperature

Stations

Nearby Weather Stations

Station Location Temp. Windchill Dew Point Humidity Wind Precip. Elev Updated Type
                   

Watches & Warnings

There are currently no watches in effect.